Terminal Aerodrome Forecast
Issued by NWS Wilmington, OH

Current Version | Previous Version | Graphics & Text | Print | Product List | Glossary On
Versions: 1 2 3 4 5 6 7 8 9 10 11 12 13 14 15 16 17 18 19 20 21 22 23 24 25 26 27 28 29 30 31 32
000
FTUS41 KILN 192300
TAFCVG
TAF
KCVG 192340Z 2000/2106 11004KT P6SM VCSH OVC025
     FM200400 VRB03KT 5SM BR OVC012
      TEMPO 2008/2011 2SM BR
     FM201400 10005KT P6SM OVC025
     FM201800 12006KT P6SM BKN035
     FM210000 VRB03KT P6SM SCT035=

USA.gov is the U.S. government's official web portal to all federal, state and local government web resources and services.